KCMY/CMY METAR and TAF weather

Enter ICAO airport designator
Station Type Date Time Source
KCMY METAR 2020/10/20 17:55 UTC NOAA

KCMY 201755Z AUTO 10005KT 7SM -SN BKN031 OVC039 02/M02 A3022 RMK AO2 T00201025 10024 21050


Station Type Date Time Source
KCMY Decoded METAR 2020/10/20 17:55 UTC NOAA

Sparta, Sparta / Fort McCoy Airport, WI, United States (KCMY) 43-57-30N 090-44-16W
Oct 20, 2020 - 01:55 PM EDT / 2020.10.20 1755 UTC
Wind: from the E (100 degrees) at 6 MPH (5 KT):0
Visibility: 7 mile(s):0
Sky conditions: overcast
Weather: light snow
Temperature: 35.6 F (2.0 C)
Dew Point: 27.5 F (-2.5 C)
Relative Humidity: 72%
Pressure (altimeter): 30.22 in. Hg (1023 hPa)
ob: KCMY 201755Z AUTO 10005KT 7SM -SN BKN031 OVC039 02/M02 A3022 RMK AO2 T00201025 10024 21050
cycle: 18

Station Type Date Time Source
KCMY TAF UTC NOAA

Error!

Example: see airport list